createdAt,value
2022-09-10T00:01:52.673Z,9.4
2022-09-10T00:03:56.458Z,9.1
2022-09-10T00:06:00.326Z,10.8
2022-09-10T00:07:04.079Z,9.5
2022-09-10T00:09:07.772Z,8.8
2022-09-10T00:11:11.596Z,9.8
2022-09-10T00:13:15.425Z,9.8
2022-09-10T00:15:24.190Z,10.5
2022-09-10T00:17:27.970Z,9.3
2022-09-10T00:23:39.466Z,8.8
2022-09-10T00:25:43.321Z,9.7
2022-09-10T00:27:47.163Z,9
2022-09-10T00:29:54.287Z,9.6
2022-09-10T00:31:58.109Z,9.4
2022-09-10T00:34:01.934Z,10.3
2022-09-10T00:36:05.762Z,8.8
2022-09-10T00:38:09.638Z,8.2
2022-09-10T00:40:13.456Z,8.5
2022-09-10T00:42:17.310Z,10
2022-09-10T00:44:24.415Z,9
2022-09-10T00:46:28.244Z,9
2022-09-10T00:52:40.100Z,9.3
2022-09-10T00:54:43.667Z,10
2022-09-10T00:56:47.522Z,9.7
2022-09-10T00:58:54.581Z,10.8
2022-09-10T01:00:58.546Z,10
2022-09-10T01:03:02.301Z,9.9
2022-09-10T01:04:05.831Z,9.8
2022-09-10T01:06:09.684Z,10.1
2022-09-10T01:08:13.523Z,10.9
2022-09-10T01:10:17.373Z,9.6
2022-09-10T01:12:24.492Z,11.7
2022-09-10T01:14:28.314Z,11.1
2022-09-10T01:16:32.219Z,10.7
2022-09-10T01:18:35.977Z,11.6
2022-09-10T01:20:39.847Z,11.7
2022-09-10T01:22:43.694Z,11.5
2022-09-10T01:24:47.551Z,11.4
2022-09-10T01:26:54.664Z,10.7
2022-09-10T01:28:58.491Z,11.9
2022-09-10T01:33:06.192Z,12.2
2022-09-10T01:35:10.042Z,11.5
2022-09-10T01:41:24.830Z,13.5
2022-09-10T01:43:28.679Z,13.3
2022-09-10T01:45:32.570Z,12.2
2022-09-10T01:47:36.346Z,12.7
2022-09-10T01:49:40.161Z,13.4
2022-09-10T01:53:47.897Z,13.9
2022-09-10T01:55:54.980Z,13.5
2022-09-10T01:57:58.807Z,14.3
2022-09-10T02:00:02.636Z,14.9
2022-09-10T02:02:27.539Z,15.3
2022-09-10T02:06:35.232Z,15.4
2022-09-10T02:08:42.358Z,17.6
2022-09-10T02:10:46.211Z,16.9
2022-09-10T02:14:53.843Z,17.3
2022-09-10T02:19:01.524Z,17.1
2022-09-10T02:21:05.343Z,16.5
2022-09-10T02:23:12.462Z,17.8
2022-09-10T02:29:23.968Z,17
2022-09-10T02:31:27.884Z,18
2022-09-10T02:35:35.488Z,17.5
2022-09-10T02:37:42.577Z,18.1
2022-09-10T02:39:46.454Z,17.7
2022-09-10T02:41:50.257Z,19.5
2022-09-10T02:43:54.069Z,17.3
2022-09-10T02:45:57.957Z,16.9
2022-09-10T02:48:01.764Z,17.4
2022-09-10T02:50:06.259Z,20.1
2022-09-10T02:52:12.680Z,17.4
2022-09-10T02:54:16.503Z,18.1
2022-09-10T02:56:20.335Z,19
2022-09-10T02:57:23.901Z,19.6
2022-09-10T03:03:35.413Z,17.5
2022-09-10T03:05:42.510Z,18.3
2022-09-10T03:07:46.322Z,16.2
2022-09-10T03:09:50.141Z,16.7
2022-09-10T03:13:57.801Z,15.4
2022-09-10T03:16:01.654Z,18
2022-09-10T03:18:05.489Z,16.9
2022-09-10T03:20:12.632Z,18.2
2022-09-10T03:22:16.406Z,17.5
2022-09-10T03:24:20.266Z,15.4
2022-09-10T03:26:24.086Z,16.6
2022-09-10T03:28:27.939Z,17.6
2022-09-10T03:30:31.869Z,17.3
2022-09-10T03:32:35.606Z,17.4
2022-09-10T03:34:42.719Z,18.8
2022-09-10T03:36:46.539Z,18.6
2022-09-10T03:38:50.386Z,20
2022-09-10T03:45:05.368Z,20
2022-09-10T03:47:05.688Z,19.6
2022-09-10T03:49:12.778Z,19.4
2022-09-10T03:51:16.607Z,19.7
2022-09-10T03:53:20.465Z,20.1
2022-09-10T03:54:24.023Z,19.6
2022-09-10T03:58:31.690Z,19.6
2022-09-10T04:00:35.518Z,18.7
2022-09-10T04:02:42.663Z,19.7
2022-09-10T04:04:46.482Z,18.1
2022-09-10T04:06:50.303Z,19
2022-09-10T04:08:54.157Z,21.1
2022-09-10T04:10:57.940Z,18.4
2022-09-10T04:15:05.653Z,18.9
2022-09-10T04:17:12.772Z,21.9
2022-09-10T04:19:16.588Z,19.7
2022-09-10T04:21:20.400Z,18.7
2022-09-10T04:23:24.238Z,21
2022-09-10T04:25:28.030Z,18.9
2022-09-10T04:29:35.708Z,19.8
2022-09-10T04:33:46.643Z,20.5
2022-09-10T04:35:50.491Z,19.6
2022-09-10T04:37:54.347Z,20.4
2022-09-10T04:44:05.901Z,20
2022-09-10T04:48:16.799Z,21.2
2022-09-10T04:50:20.651Z,19.5
2022-09-10T04:51:24.163Z,20.9
2022-09-10T04:53:28.007Z,20
2022-09-10T04:55:31.864Z,20.8
2022-09-10T04:57:35.697Z,18.8
2022-09-10T05:01:46.668Z,19.1
2022-09-10T05:05:54.318Z,18.9
2022-09-10T05:07:58.171Z,21
2022-09-10T05:10:02.003Z,19.9
2022-09-10T05:12:05.835Z,20.5
2022-09-10T05:14:12.927Z,20.3
2022-09-10T05:16:16.789Z,19
2022-09-10T05:18:20.624Z,18.9
2022-09-10T05:20:24.436Z,19.1
2022-09-10T05:22:34.942Z,20.2
2022-09-10T05:24:32.095Z,18.8
2022-09-10T05:26:35.949Z,16.6
2022-09-10T05:28:43.072Z,18.4
2022-09-10T05:30:51.355Z,18.5
2022-09-10T05:32:50.772Z,18.7
2022-09-10T05:34:54.573Z,20.3
2022-09-10T05:36:58.419Z,17.7
2022-09-10T18:19:19.152Z,10.9
2022-09-10T18:21:22.996Z,9.7
2022-09-10T18:23:26.850Z,9.1
2022-09-10T18:25:51.590Z,11
2022-09-10T18:27:55.402Z,10.5
2022-09-10T18:29:59.230Z,9.4
2022-09-10T18:32:06.307Z,10.1
2022-09-10T18:34:10.116Z,9.8
2022-09-10T18:36:13.942Z,10.9
2022-09-10T18:38:17.767Z,10.4
2022-09-10T18:40:21.598Z,10.4
2022-09-10T18:42:25.407Z,10.2
2022-09-10T18:44:29.230Z,11.9
2022-09-10T18:46:36.408Z,10.9
2022-09-10T18:48:40.174Z,10.1
2022-09-10T18:50:43.958Z,9.5
2022-09-10T18:52:47.816Z,10.9
2022-09-10T18:56:55.414Z,11.9
2022-09-10T18:58:59.260Z,11.4
2022-09-10T19:01:06.313Z,12
2022-09-10T19:03:10.121Z,11.5
2022-09-10T19:05:13.953Z,11.4
2022-09-10T19:07:17.749Z,11.7
2022-09-10T19:09:21.591Z,11.6
2022-09-10T19:11:25.387Z,12.7
2022-09-10T19:13:29.200Z,13.5
2022-09-10T19:15:36.424Z,12.9
2022-09-10T19:17:40.125Z,15.3
2022-09-10T19:19:43.948Z,12.9
2022-09-10T19:20:47.514Z,13.3
2022-09-10T19:22:51.316Z,12.6
2022-09-10T19:24:55.991Z,12.5
2022-09-10T19:31:09.966Z,13.5
2022-09-10T19:33:13.715Z,13.3
2022-09-10T19:35:17.568Z,11.8
2022-09-10T19:37:21.393Z,12.6
2022-09-10T19:39:25.225Z,12.4
2022-09-10T19:41:29.134Z,12.7
2022-09-10T19:43:36.159Z,13
2022-09-10T19:45:39.977Z,13.1
2022-09-10T19:47:43.803Z,13.4
2022-09-10T19:49:47.627Z,14
2022-09-10T19:51:52.640Z,13.7
2022-09-10T19:53:55.255Z,13.7
2022-09-10T19:55:59.087Z,13.6
2022-09-10T19:58:06.168Z,13.9
2022-09-10T20:00:20.634Z,13.9
2022-09-10T20:02:13.982Z,13.7
2022-09-10T20:04:17.630Z,15.1
2022-09-10T20:06:21.446Z,15
2022-09-10T20:08:25.289Z,13.8
2022-09-10T20:10:29.115Z,14.3
2022-09-10T20:12:36.214Z,15.8
2022-09-10T20:16:43.857Z,15.6
2022-09-10T20:21:55.044Z,14.6
2022-09-10T20:23:58.870Z,16.3
2022-09-10T20:26:05.990Z,15.9
2022-09-10T20:28:09.824Z,15.3
2022-09-10T20:30:13.648Z,15
2022-09-10T20:32:17.529Z,15.8
2022-09-10T20:36:25.160Z,17.8
2022-09-10T20:38:28.978Z,15.1
2022-09-10T20:40:36.121Z,17
2022-09-10T20:42:39.930Z,16.8
2022-09-10T20:44:43.760Z,17.3
2022-09-10T20:46:47.594Z,16.5
2022-09-10T20:48:51.395Z,17.7
2022-09-10T20:50:55.249Z,16.6
2022-09-10T20:52:59.077Z,17.6
2022-09-10T20:55:06.199Z,18.7
2022-09-10T21:01:17.760Z,17.8
2022-09-10T21:05:25.354Z,18.6
2022-09-10T21:07:29.199Z,19
2022-09-10T21:09:36.326Z,19.4
2022-09-10T21:13:43.974Z,18.7
2022-09-10T21:18:55.201Z,18.8
2022-09-10T21:27:13.780Z,17.6
2022-09-10T21:29:17.630Z,20.2
2022-09-10T21:31:21.479Z,17.8
2022-09-10T21:33:25.310Z,20.2
2022-09-10T21:35:29.146Z,19.2
2022-09-10T21:37:36.259Z,19.4
2022-09-10T21:43:47.742Z,20.4
2022-09-10T21:45:51.569Z,19.4
2022-09-10T21:47:55.392Z,19.9
2022-09-10T21:49:59.219Z,20
2022-09-10T21:52:06.352Z,21.7
2022-09-10T21:56:13.979Z,20.2
2022-09-10T21:58:17.800Z,18.7
2022-09-10T22:00:21.652Z,20.6
2022-09-10T22:02:25.607Z,20.3
2022-09-10T22:04:29.296Z,20.8
2022-09-10T22:08:40.313Z,20.4
2022-09-10T22:10:44.065Z,20.7
2022-09-10T22:15:06.462Z,21
2022-09-10T22:17:10.293Z,21.9
2022-09-10T22:19:17.370Z,22.3
2022-09-10T22:21:21.215Z,19.9
2022-09-10T22:23:25.030Z,19.3
2022-09-10T22:25:28.853Z,18.4
2022-09-10T22:27:32.701Z,21
2022-09-10T22:29:36.517Z,20.2
2022-09-10T22:33:47.483Z,21.6
2022-09-10T22:35:51.312Z,22.9
2022-09-10T22:37:55.164Z,20.6
2022-09-10T22:46:10.522Z,21.1
2022-09-10T22:52:25.239Z,21.2
2022-09-10T23:00:40.654Z,21.8
2022-09-10T23:07:58.979Z,21.9
2022-09-10T23:10:02.884Z,20.9
2022-09-10T23:12:06.666Z,23
2022-09-10T23:16:17.693Z,23.4
2022-09-10T23:18:21.528Z,21.5
2022-09-10T23:20:25.308Z,22
2022-09-10T23:22:29.135Z,23.5
2022-09-10T23:24:32.994Z,21.4
2022-09-10T23:26:36.856Z,22
2022-09-10T23:28:40.870Z,21
2022-09-10T23:30:47.805Z,21.8
2022-09-10T23:32:51.652Z,23.9
2022-09-10T23:39:03.183Z,25.2
2022-09-10T23:49:25.682Z,22.6
2022-09-10T23:51:29.510Z,20.8
2022-09-10T23:53:33.479Z,22.7
2022-09-10T23:55:37.182Z,22.3
2022-09-10T23:57:41.016Z,23.6
2022-09-10T23:59:48.144Z,23.5
